Portage la Prairie, Canada
Current Conditions -  °F | °C
As of 3:00 AM on Monday 24 Nov 2014 (Local Time) from CYWG Reporting Station
Broken Clouds Broken Clouds  
Wind Chill: -25°   Ceiling: 1600
Heat Index: -14°   Visibility: 12mi
Dew Point: -18°   Wind: 20mph
Humidity: 72%   Direction: 350°N
Pressure: 29.72"   Gusts: 25mph
Location:  49.97°N, 98.29°W
Report Text: CYWG 240900Z 35017G22KT 12SM BKN016 M14/M18 A2972 RMK NS7 SLP081
Loading
Personal Weather Stations






























Interactive Weather Map New forecast layout! Learn more

10-Day Weather Forecast

Advertisements
Track Severe Weather on mobile